TimeCDT,TemperatureF,Dew PointF,Humidity,Sea Level PressureIn,VisibilityMPH,Wind Direction,Wind SpeedMPH,Gust SpeedMPH,PrecipitationIn,Events,Conditions,WindDirDegrees,DateUTC
12:55 AM,52.0,48.0,86,30.01,10.0,Calm,Calm,-,N/A,,Clear,0,2013-05-08 05:55:00
1:55 AM,50.0,48.0,93,30.01,10.0,Calm,Calm,-,N/A,,Clear,0,2013-05-08 06:55:00
2:55 AM,51.1,48.9,92,30.00,10.0,Calm,Calm,-,N/A,,Clear,0,2013-05-08 07:55:00
3:55 AM,48.9,48.0,97,30.01,10.0,Calm,Calm,-,N/A,,Clear,0,2013-05-08 08:55:00
4:55 AM,50.0,48.0,93,30.01,10.0,Calm,Calm,-,N/A,,Clear,0,2013-05-08 09:55:00
5:55 AM,48.9,46.9,93,30.02,10.0,Calm,Calm,-,N/A,,Clear,0,2013-05-08 10:55:00
6:55 AM,53.1,48.9,86,30.03,10.0,Calm,Calm,-,N/A,,Clear,0,2013-05-08 11:55:00
7:55 AM,63.0,55.0,75,30.03,10.0,South,3.5,-,N/A,,Clear,170,2013-05-08 12:55:00
8:55 AM,68.0,54.0,61,30.04,10.0,SSE,4.6,-,N/A,,Clear,160,2013-05-08 13:55:00
9:55 AM,72.0,54.0,53,30.03,10.0,SSE,5.8,-,N/A,,Clear,150,2013-05-08 14:55:00
10:55 AM,73.0,51.1,46,30.03,10.0,SSW,9.2,-,N/A,,Mostly Cloudy,200,2013-05-08 15:55:00
11:55 AM,71.1,48.9,45,30.04,10.0,SW,6.9,-,N/A,,Overcast,220,2013-05-08 16:55:00
12:55 PM,73.0,52.0,48,30.03,10.0,SSW,8.1,-,N/A,,Mostly Cloudy,210,2013-05-08 17:55:00
1:55 PM,73.9,53.1,48,30.01,10.0,South,5.8,-,N/A,,Mostly Cloudy,190,2013-05-08 18:55:00
2:55 PM,73.0,55.0,53,30.01,10.0,SW,4.6,-,N/A,,Overcast,230,2013-05-08 19:55:00
3:55 PM,73.9,55.0,52,30.00,10.0,SW,5.8,-,N/A,,Mostly Cloudy,230,2013-05-08 20:55:00
4:55 PM,73.0,54.0,51,29.99,10.0,South,11.5,-,N/A,,Overcast,190,2013-05-08 21:55:00
5:55 PM,71.1,54.0,55,29.99,10.0,South,12.7,-,N/A,,Partly Cloudy,180,2013-05-08 22:55:00
6:55 PM,68.0,54.0,61,29.98,10.0,South,8.1,-,N/A,,Clear,180,2013-05-08 23:55:00
7:55 PM,66.9,54.0,63,29.96,10.0,South,6.9,-,N/A,,Clear,180,2013-05-09 00:55:00
8:55 PM,62.1,54.0,75,29.97,10.0,SE,5.8,-,N/A,,Partly Cloudy,140,2013-05-09 01:55:00
9:55 PM,61.0,53.1,75,29.97,10.0,SE,4.6,-,N/A,,Clear,140,2013-05-09 02:55:00
10:55 PM,60.1,53.1,78,29.96,10.0,SE,5.8,-,N/A,,Scattered Clouds,140,2013-05-09 03:55:00
11:55 PM,61.0,54.0,78,29.95,10.0,SE,5.8,-,N/A,,Overcast,130,2013-05-09 04:55:00